Time;durP1;ratioP1;P1;durP2;ratioP2;P2;SDS_P1;SDS_P2;PMS_P1;PMS_P2;Temp;Humidity;BMP_temperature;BMP_pressure;BME280_temperature;BME280_humidity;BME280_pressure;Samples;Min_cycle;Max_cycle;Signal;HPM_P1;HPM_P2
2021/12/17 00:04:51;;;;;;;;;;;9.00;99.90;;;;;;5153167;27;20350;-81
2021/12/17 00:07:18;;;;;;;;;;;9.00;99.90;;;;;;5122166;27;19928;-81
2021/12/17 00:09:45;;;;;;;;;;;9.00;99.90;;;;;;5103853;27;19926;-81
2021/12/17 00:12:12;;;;;;;;;;;9.00;99.90;;;;;;5092029;27;20011;-81
2021/12/17 00:14:38;;;;;;;;;;;8.90;99.90;;;;;;5101280;27;19920;-80
2021/12/17 00:17:07;;;;;;;;;;;9.00;99.90;;;;;;5122092;27;19931;-81
2021/12/17 00:49:21;;;;;;;;;;;9.00;99.90;;;;;;5116144;27;19920;-81
2021/12/17 00:52:02;;;;;;;;;;;9.00;99.90;;;;;;5111269;27;20363;-80
2021/12/17 00:54:33;;;;;;;;;;;9.00;99.90;;;;;;5124375;27;20040;-80
2021/12/17 00:57:06;;;;;;;;;;;9.00;99.90;;;;;;5105771;27;19987;-81
2021/12/17 00:59:32;;;;;;;;;;;9.00;99.90;;;;;;5099255;27;19923;-81
2021/12/17 01:01:58;;;;;;;;;;;9.00;99.90;;;;;;5102644;28;19923;-81
2021/12/17 01:04:24;;;;;;;;;;;9.00;99.90;;;;;;5094432;27;19919;-81
2021/12/17 01:06:51;;;;;;;;;;;9.00;99.90;;;;;;5109168;27;19926;-81
2021/12/17 01:09:19;;;;;;;;;;;9.00;99.90;;;;;;5115321;27;20010;-81
2021/12/17 01:11:45;;;;;;;;;;;9.00;99.90;;;;;;5111091;27;19919;-81
2021/12/17 01:14:34;;;;;;;;;;;9.00;99.90;;;;;;5105857;27;19920;-80
2021/12/17 01:17:20;;;;;;;;;;;9.00;99.90;;;;;;5130082;27;19938;-81
2021/12/17 01:20:32;;;;;;;;;;;9.00;99.90;;;;;;5101383;27;19919;-81
2021/12/17 01:23:46;;;;;;;;;;;9.00;99.90;;;;;;5100835;27;19942;-81
2021/12/17 01:43:48;;;;;;;;;;;9.00;99.90;;;;;;5077285;28;19924;-81
2021/12/17 01:46:16;;;;;;;;;;;9.00;99.90;;;;;;5080010;27;20048;-81
2021/12/17 01:49:01;;;;;;;;;;;8.90;99.90;;;;;;5112743;27;19919;-81
2021/12/17 01:59:20;;;;;;;;;;;8.90;99.90;;;;;;5101988;27;19920;-81
2021/12/17 01:59:47;;;;;;;;;;;8.90;99.90;;;;;;5112004;27;19928;-81
2021/12/17 02:02:13;;;;;;;;;;;8.90;99.90;;;;;;5091326;27;19924;-81
2021/12/17 02:04:40;;;;;;;;;;;9.00;99.90;;;;;;5112419;27;20333;-81
2021/12/17 02:07:06;;;;;;;;;;;9.00;99.90;;;;;;5107928;27;19919;-81
2021/12/17 02:20:59;;;;;;;;;;;9.00;99.90;;;;;;5120107;27;20395;-80
2021/12/17 02:28:54;;;;;;;;;;;9.00;99.90;;;;;;5111557;27;19919;-81
2021/12/17 02:31:26;;;;;;;;;;;9.00;99.90;;;;;;5107579;27;19980;-81
2021/12/17 02:33:53;;;;;;;;;;;9.00;99.90;;;;;;5113717;27;19919;-81
2021/12/17 02:36:25;;;;;;;;;;;9.00;99.90;;;;;;5119457;27;19959;-80
2021/12/17 02:38:52;;;;;;;;;;;9.00;99.90;;;;;;5130086;27;20371;-81
2021/12/17 02:47:10;;;;;;;;;;;9.00;99.90;;;;;;5102552;27;19927;-80
2021/12/17 02:49:37;;;;;;;;;;;9.00;99.90;;;;;;5096438;28;19919;-80
2021/12/17 02:52:05;;;;;;;;;;;9.00;99.90;;;;;;5106688;27;19934;-80
2021/12/17 02:54:31;;;;;;;;;;;9.00;99.90;;;;;;5108294;28;19924;-81
2021/12/17 02:56:57;;;;;;;;;;;9.00;99.90;;;;;;5115127;28;20379;-81
2021/12/17 02:59:23;;;;;;;;;;;9.00;99.90;;;;;;5104276;28;20010;-81
2021/12/17 03:01:49;;;;;;;;;;;9.00;99.90;;;;;;5113643;28;19973;-81
2021/12/17 03:04:17;;;;;;;;;;;9.00;99.90;;;;;;5089470;28;19919;-81
2021/12/17 03:06:43;;;;;;;;;;;9.00;99.90;;;;;;5108057;28;19919;-81
2021/12/17 03:09:10;;;;;;;;;;;9.00;99.90;;;;;;5110113;27;20060;-81
2021/12/17 03:11:36;;;;;;;;;;;9.00;99.90;;;;;;5092095;28;20412;-80
2021/12/17 03:14:02;;;;;;;;;;;9.00;99.90;;;;;;5112601;28;19920;-81
2021/12/17 03:16:36;;;;;;;;;;;9.00;99.90;;;;;;5100993;28;20299;-81
2021/12/17 03:19:11;;;;;;;;;;;9.00;99.90;;;;;;5125298;27;19930;-81
2021/12/17 03:24:22;;;;;;;;;;;9.00;99.90;;;;;;5110346;28;19920;-81
2021/12/17 03:26:48;;;;;;;;;;;9.00;99.90;;;;;;5088643;27;19924;-80
2021/12/17 03:29:14;;;;;;;;;;;9.00;99.90;;;;;;5113399;28;19923;-81
2021/12/17 03:31:44;;;;;;;;;;;9.00;99.90;;;;;;5097347;28;19963;-80
2021/12/17 03:34:19;;;;;;;;;;;9.00;99.90;;;;;;5122202;27;19927;-81
2021/12/17 03:36:48;;;;;;;;;;;9.00;99.90;;;;;;5098931;28;19982;-80
2021/12/17 03:39:14;;;;;;;;;;;9.00;99.90;;;;;;5110355;27;19934;-81
2021/12/17 03:41:48;;;;;;;;;;;9.00;99.90;;;;;;5101405;28;20369;-80
2021/12/17 03:44:14;;;;;;;;;;;9.00;99.90;;;;;;5107264;27;19939;-81
2021/12/17 03:46:59;;;;;;;;;;;9.10;99.90;;;;;;5109174;27;20285;-80
2021/12/17 03:49:25;;;;;;;;;;;9.00;99.90;;;;;;5106768;27;20013;-81
2021/12/17 03:52:04;;;;;;;;;;;9.00;99.90;;;;;;5115465;27;19919;-80
2021/12/17 03:54:30;;;;;;;;;;;9.00;99.90;;;;;;5101589;27;20476;-81
2021/12/17 03:56:59;;;;;;;;;;;9.00;99.90;;;;;;5107218;27;19970;-81
2021/12/17 03:59:25;;;;;;;;;;;9.00;99.90;;;;;;5115104;27;19924;-81
2021/12/17 04:01:51;;;;;;;;;;;9.00;99.90;;;;;;5111622;27;19983;-81
2021/12/17 04:04:16;;;;;;;;;;;9.00;99.90;;;;;;5096996;27;19976;-81
2021/12/17 04:06:43;;;;;;;;;;;9.00;99.90;;;;;;5095857;27;19926;-80
2021/12/17 04:09:30;;;;;;;;;;;9.00;99.90;;;;;;5105917;27;19919;-81
2021/12/17 04:12:09;;;;;;;;;;;9.00;99.90;;;;;;5096475;27;19927;-81
2021/12/17 04:14:51;;;;;;;;;;;9.00;99.90;;;;;;5095954;28;19977;-81
2021/12/17 04:17:23;;;;;;;;;;;9.00;99.90;;;;;;5110367;27;19924;-81
2021/12/17 04:19:49;;;;;;;;;;;9.00;99.90;;;;;;5105887;27;19920;-81
2021/12/17 04:22:14;;;;;;;;;;;9.00;99.90;;;;;;5102589;27;19924;-80
2021/12/17 04:24:40;;;;;;;;;;;9.00;99.90;;;;;;5108267;27;19919;-81
2021/12/17 04:27:07;;;;;;;;;;;9.00;99.90;;;;;;5111759;27;19920;-81
2021/12/17 04:29:39;;;;;;;;;;;9.00;99.90;;;;;;5111269;27;21293;-81
2021/12/17 04:32:06;;;;;;;;;;;9.00;99.90;;;;;;5097862;27;20018;-81
2021/12/17 04:34:33;;;;;;;;;;;9.00;99.90;;;;;;5119166;27;19920;-81
2021/12/17 04:37:01;;;;;;;;;;;9.00;99.90;;;;;;5093649;27;19919;-81
2021/12/17 04:39:42;;;;;;;;;;;9.00;99.90;;;;;;5100851;27;19927;-80
2021/12/17 04:42:17;;;;;;;;;;;9.00;99.90;;;;;;5108087;27;19920;-81
2021/12/17 04:44:50;;;;;;;;;;;8.90;99.90;;;;;;5116525;27;19932;-80
2021/12/17 04:58:07;;;;;;;;;;;8.70;99.90;;;;;;5112097;27;19923;-80
2021/12/17 05:00:33;;;;;;;;;;;8.70;99.90;;;;;;5096105;27;20338;-80
2021/12/17 05:03:07;;;;;;;;;;;8.60;99.90;;;;;;5135569;27;19926;-81
2021/12/17 05:05:33;;;;;;;;;;;8.50;99.90;;;;;;5109600;27;20017;-81
2021/12/17 05:08:12;;;;;;;;;;;8.50;99.90;;;;;;5110838;27;19919;-80
2021/12/17 05:18:46;;;;;;;;;;;8.40;99.90;;;;;;5112801;27;19949;-80
2021/12/17 05:21:12;;;;;;;;;;;8.40;99.90;;;;;;5117938;27;19934;-80
2021/12/17 05:23:44;;;;;;;;;;;8.40;99.90;;;;;;5113289;27;19919;-81
2021/12/17 05:26:12;;;;;;;;;;;8.50;99.90;;;;;;5092798;27;19949;-81
2021/12/17 05:28:43;;;;;;;;;;;8.50;99.90;;;;;;5088754;27;19924;-81
2021/12/17 05:31:10;;;;;;;;;;;8.40;99.90;;;;;;5109489;27;19964;-81
2021/12/17 05:33:42;;;;;;;;;;;8.50;99.90;;;;;;5094211;27;19978;-81
2021/12/17 05:36:08;;;;;;;;;;;8.50;99.90;;;;;;5098955;27;19923;-80
2021/12/17 05:38:37;;;;;;;;;;;8.50;99.90;;;;;;5110928;27;19930;-81
2021/12/17 05:41:03;;;;;;;;;;;8.50;99.90;;;;;;5111446;27;19923;-81
2021/12/17 05:43:42;;;;;;;;;;;8.60;99.90;;;;;;5114360;27;19919;-81
2021/12/17 05:46:09;;;;;;;;;;;8.50;99.90;;;;;;5089938;27;20291;-81
2021/12/17 05:48:37;;;;;;;;;;;8.50;99.90;;;;;;5101294;27;19954;-81
2021/12/17 05:51:03;;;;;;;;;;;8.50;99.90;;;;;;5093994;27;19923;-81
2021/12/17 05:53:30;;;;;;;;;;;8.50;99.90;;;;;;5096739;27;20022;-81
2021/12/17 05:55:56;;;;;;;;;;;8.50;99.90;;;;;;5092979;27;20299;-81
2021/12/17 05:58:25;;;;;;;;;;;8.60;99.90;;;;;;5093250;27;20443;-81
2021/12/17 06:00:50;;;;;;;;;;;8.60;99.90;;;;;;5117542;27;19919;-81
2021/12/17 06:03:42;;;;;;;;;;;8.60;99.90;;;;;;5107710;27;19965;-81
2021/12/17 06:06:10;;;;;;;;;;;8.50;99.90;;;;;;5100088;27;20384;-81
2021/12/17 06:08:36;;;;;;;;;;;8.50;99.90;;;;;;5107307;27;20010;-80
2021/12/17 06:11:02;;;;;;;;;;;8.50;99.90;;;;;;5101067;27;19919;-82
2021/12/17 06:13:28;;;;;;;;;;;8.50;99.90;;;;;;5110150;27;19927;-81
2021/12/17 06:15:53;;;;;;;;;;;8.50;99.90;;;;;;5094863;27;19924;-81
2021/12/17 06:18:19;;;;;;;;;;;8.50;99.90;;;;;;5113005;27;19923;-81
2021/12/17 06:20:47;;;;;;;;;;;8.50;99.90;;;;;;5096487;27;19969;-80
2021/12/17 06:23:13;;;;;;;;;;;8.50;99.90;;;;;;5107898;28;19923;-81
2021/12/17 06:25:39;;;;;;;;;;;8.50;99.90;;;;;;5093139;27;19983;-81
2021/12/17 06:28:04;;;;;;;;;;;8.50;99.90;;;;;;5103805;27;19967;-81
2021/12/17 06:30:30;;;;;;;;;;;8.50;99.90;;;;;;5094433;27;19975;-81
2021/12/17 06:32:56;;;;;;;;;;;8.50;99.90;;;;;;5118056;27;19919;-81
2021/12/17 06:35:24;;;;;;;;;;;8.50;99.90;;;;;;5110845;27;20295;-81
2021/12/17 06:37:51;;;;;;;;;;;8.50;99.90;;;;;;5092257;27;19923;-81
2021/12/17 06:40:24;;;;;;;;;;;8.50;99.90;;;;;;5098671;27;19949;-80
2021/12/17 06:42:50;;;;;;;;;;;8.40;99.90;;;;;;5106172;27;19919;-81
2021/12/17 06:45:24;;;;;;;;;;;8.40;99.90;;;;;;5087302;27;20337;-81
2021/12/17 06:47:57;;;;;;;;;;;8.40;99.90;;;;;;5091296;27;19941;-79
2021/12/17 07:06:11;;;;;;;;;;;8.40;99.90;;;;;;5113584;28;19920;-79
2021/12/17 07:17:07;;;;;;;;;;;8.30;99.90;;;;;;5112182;28;19969;-79
2021/12/17 07:17:25;;;;;;;;;;;8.40;99.90;;;;;;5116114;27;19955;-80
2021/12/17 07:33:36;;;;;;;;;;;8.40;99.90;;;;;;5123428;27;20159;-80
2021/12/17 07:36:40;;;;;;;;;;;8.40;99.90;;;;;;5120826;27;19935;-81
2021/12/17 07:39:06;;;;;;;;;;;8.40;99.90;;;;;;5092922;27;20029;-81
2021/12/17 07:41:51;;;;;;;;;;;8.60;99.90;;;;;;5103783;27;19924;-80
2021/12/17 07:44:34;;;;;;;;;;;8.50;99.90;;;;;;5107756;27;19935;-80
2021/12/17 07:47:18;;;;;;;;;;;8.50;99.90;;;;;;5106594;27;20566;-80
2021/12/17 07:49:54;;;;;;;;;;;8.50;99.90;;;;;;5122473;27;19930;-80
2021/12/17 07:52:21;;;;;;;;;;;8.50;99.90;;;;;;5097806;27;19923;-79
2021/12/17 07:54:47;;;;;;;;;;;8.50;99.90;;;;;;5083750;27;19919;-80
2021/12/17 07:57:14;;;;;;;;;;;8.50;99.90;;;;;;5109191;27;19919;-79
2021/12/17 07:59:40;;;;;;;;;;;8.50;99.90;;;;;;5098777;27;19942;-79
2021/12/17 08:02:06;;;;;;;;;;;8.60;99.90;;;;;;5096458;27;20978;-79
2021/12/17 08:04:38;;;;;;;;;;;8.60;99.90;;;;;;5093528;27;19966;-80
2021/12/17 08:07:09;;;;;;;;;;;8.60;99.90;;;;;;5106728;27;19919;-81
2021/12/17 08:09:35;;;;;;;;;;;8.60;99.90;;;;;;5098324;27;20399;-80
2021/12/17 08:12:05;;;;;;;;;;;8.70;99.90;;;;;;5089059;27;19975;-80
2021/12/17 08:14:40;;;;;;;;;;;8.60;99.90;;;;;;5090213;28;19931;-80
2021/12/17 08:24:58;;;;;;;;;;;8.70;99.90;;;;;;5101799;27;20149;-80
2021/12/17 08:27:31;;;;;;;;;;;8.70;99.90;;;;;;5106445;27;19923;-80
2021/12/17 08:32:43;;;;;;;;;;;8.70;99.90;;;;;;5105684;27;20424;-80
2021/12/17 08:35:10;;;;;;;;;;;8.80;99.90;;;;;;5099786;27;19930;-79
2021/12/17 08:37:36;;;;;;;;;;;8.80;99.90;;;;;;5092674;27;20012;-80
2021/12/17 08:40:04;;;;;;;;;;;8.80;99.90;;;;;;5104259;27;19924;-80
2021/12/17 08:42:35;;;;;;;;;;;8.80;99.90;;;;;;5101397;27;19935;-80
2021/12/17 08:45:07;;;;;;;;;;;8.90;99.90;;;;;;5104124;27;20323;-80
2021/12/17 08:47:47;;;;;;;;;;;8.90;99.90;;;;;;5117409;27;19927;-81
2021/12/17 08:50:19;;;;;;;;;;;8.90;99.90;;;;;;5099006;27;19920;-80
2021/12/17 08:52:45;;;;;;;;;;;8.90;99.90;;;;;;5104867;27;19927;-80
2021/12/17 08:55:11;;;;;;;;;;;8.90;99.90;;;;;;5086353;27;19924;-80
2021/12/17 08:57:38;;;;;;;;;;;8.90;99.90;;;;;;5098297;27;19974;-79
2021/12/17 09:00:08;;;;;;;;;;;8.90;99.90;;;;;;5088751;27;19988;-79
2021/12/17 09:02:57;;;;;;;;;;;9.00;99.90;;;;;;5102559;27;19931;-78
2021/12/17 09:05:46;;;;;;;;;;;9.00;99.90;;;;;;5089411;27;19931;-80
2021/12/17 09:08:17;;;;;;;;;;;9.00;99.90;;;;;;5086821;27;20002;-79
2021/12/17 09:11:01;;;;;;;;;;;9.00;99.90;;;;;;5088197;27;19934;-80
2021/12/17 09:13:48;;;;;;;;;;;9.10;99.90;;;;;;5106233;27;19938;-80
2021/12/17 09:16:15;;;;;;;;;;;9.10;99.90;;;;;;5087703;27;19962;-80
2021/12/17 09:18:41;;;;;;;;;;;9.10;99.90;;;;;;5098242;27;19924;-80
2021/12/17 09:21:17;;;;;;;;;;;9.10;99.90;;;;;;5102022;27;19985;-80
2021/12/17 09:23:56;;;;;;;;;;;9.20;99.90;;;;;;5115160;27;20016;-79
2021/12/17 09:26:22;;;;;;;;;;;9.20;99.90;;;;;;5084173;27;19945;-80
2021/12/17 09:28:48;;;;;;;;;;;9.20;99.90;;;;;;5102390;27;20311;-79
2021/12/17 09:31:14;;;;;;;;;;;9.20;99.90;;;;;;5103198;27;19990;-80
2021/12/17 09:33:42;;;;;;;;;;;9.20;99.90;;;;;;5104488;27;20010;-80
2021/12/17 09:36:09;;;;;;;;;;;9.30;99.90;;;;;;5121430;27;19928;-80
2021/12/17 09:38:34;;;;;;;;;;;9.30;99.90;;;;;;5090381;27;19973;-80
2021/12/17 09:41:00;;;;;;;;;;;9.30;99.90;;;;;;5116414;27;19955;-79
2021/12/17 09:43:27;;;;;;;;;;;9.30;99.90;;;;;;5114572;27;19941;-79
2021/12/17 09:45:52;;;;;;;;;;;9.30;99.90;;;;;;5114989;27;19935;-80
2021/12/17 09:48:19;;;;;;;;;;;9.40;99.90;;;;;;5101647;27;19924;-80
2021/12/17 09:50:46;;;;;;;;;;;9.40;99.90;;;;;;5114033;27;20042;-80
2021/12/17 09:53:11;;;;;;;;;;;9.40;99.90;;;;;;5090959;27;20301;-80
2021/12/17 09:55:37;;;;;;;;;;;9.50;99.90;;;;;;5112037;27;19936;-80
2021/12/17 09:58:03;;;;;;;;;;;9.50;99.90;;;;;;5106705;27;20579;-80
2021/12/17 10:00:29;;;;;;;;;;;9.50;99.90;;;;;;5093292;27;19969;-80
2021/12/17 10:02:54;;;;;;;;;;;9.50;99.90;;;;;;5089921;27;20396;-80
2021/12/17 10:05:21;;;;;;;;;;;9.60;99.90;;;;;;5111315;27;19938;-80
2021/12/17 10:07:53;;;;;;;;;;;9.60;99.90;;;;;;5120534;27;20029;-80
2021/12/17 10:10:19;;;;;;;;;;;9.60;99.90;;;;;;5103679;27;20006;-80
2021/12/17 10:12:46;;;;;;;;;;;9.60;99.90;;;;;;5098815;28;20369;-80
2021/12/17 10:15:13;;;;;;;;;;;9.60;99.90;;;;;;5106123;27;20022;-79
2021/12/17 10:17:50;;;;;;;;;;;9.60;99.90;;;;;;5099256;28;19924;-79
2021/12/17 10:20:16;;;;;;;;;;;9.70;99.90;;;;;;5116858;27;20006;-80
2021/12/17 10:22:43;;;;;;;;;;;9.70;99.90;;;;;;5108137;27;19927;-80
2021/12/17 10:25:10;;;;;;;;;;;9.80;99.90;;;;;;5097176;27;19967;-78
2021/12/17 10:27:36;;;;;;;;;;;9.70;99.90;;;;;;5114808;27;19932;-80
2021/12/17 10:30:10;;;;;;;;;;;9.80;99.90;;;;;;5105910;27;19934;-80
2021/12/17 10:32:36;;;;;;;;;;;9.80;99.90;;;;;;5102512;27;19927;-80
2021/12/17 10:35:06;;;;;;;;;;;9.80;99.90;;;;;;5083625;27;21378;-80
2021/12/17 10:37:37;;;;;;;;;;;9.80;99.90;;;;;;5114479;27;19920;-79
2021/12/17 10:40:19;;;;;;;;;;;9.80;99.90;;;;;;5102980;27;19998;-80
2021/12/17 10:42:59;;;;;;;;;;;9.80;99.90;;;;;;5089123;28;20022;-79
2021/12/17 10:45:28;;;;;;;;;;;9.80;99.90;;;;;;5116440;27;19923;-80
2021/12/17 10:48:12;;;;;;;;;;;9.90;99.90;;;;;;5117008;27;20031;-80
2021/12/17 10:50:38;;;;;;;;;;;9.90;99.90;;;;;;5115391;27;19924;-80
2021/12/17 10:53:06;;;;;;;;;;;9.90;99.90;;;;;;5101241;27;20388;-80
2021/12/17 10:55:33;;;;;;;;;;;9.90;99.90;;;;;;5101851;27;19949;-79
2021/12/17 10:58:02;;;;;;;;;;;9.90;99.90;;;;;;5102039;27;19931;-78
2021/12/17 11:00:27;;;;;;;;;;;10.00;99.90;;;;;;5083906;28;19924;-80
2021/12/17 11:02:54;;;;;;;;;;;10.00;99.90;;;;;;5089170;27;19919;-80
2021/12/17 11:05:20;;;;;;;;;;;10.00;99.90;;;;;;5091483;28;19924;-80
2021/12/17 11:07:46;;;;;;;;;;;10.00;99.90;;;;;;5115225;27;19938;-80
2021/12/17 11:10:12;;;;;;;;;;;10.20;99.90;;;;;;5099242;27;19920;-79
2021/12/17 11:12:40;;;;;;;;;;;10.10;99.90;;;;;;5114088;27;19919;-80
2021/12/17 11:15:10;;;;;;;;;;;10.10;99.90;;;;;;5098839;28;20513;-80
2021/12/17 11:17:36;;;;;;;;;;;10.10;99.90;;;;;;5097349;27;19927;-79
2021/12/17 11:20:03;;;;;;;;;;;10.20;99.90;;;;;;5109355;28;19920;-80
2021/12/17 11:22:30;;;;;;;;;;;10.20;99.90;;;;;;5102939;28;19931;-79
2021/12/17 11:24:58;;;;;;;;;;;10.20;99.90;;;;;;5089046;28;19923;-80
2021/12/17 11:27:24;;;;;;;;;;;10.30;99.90;;;;;;5102461;28;19953;-79
2021/12/17 11:29:52;;;;;;;;;;;10.30;99.90;;;;;;5093124;27;19923;-79
2021/12/17 11:32:19;;;;;;;;;;;10.30;99.90;;;;;;5120467;27;19928;-79
2021/12/17 11:34:44;;;;;;;;;;;10.40;99.90;;;;;;5090446;28;19924;-79
2021/12/17 11:37:10;;;;;;;;;;;10.40;99.90;;;;;;5125507;27;19926;-79
2021/12/17 11:39:39;;;;;;;;;;;10.50;99.90;;;;;;5096035;27;20436;-78
2021/12/17 11:42:16;;;;;;;;;;;10.50;99.90;;;;;;5102643;28;19920;-79
2021/12/17 11:44:51;;;;;;;;;;;10.50;99.90;;;;;;5117055;27;19924;-79
2021/12/17 11:47:18;;;;;;;;;;;10.60;99.90;;;;;;5091375;28;20022;-79
2021/12/17 11:49:46;;;;;;;;;;;10.60;99.90;;;;;;5110212;28;19931;-79
2021/12/17 11:52:11;;;;;;;;;;;10.60;99.90;;;;;;5103396;28;19989;-80
2021/12/17 11:54:37;;;;;;;;;;;10.50;99.90;;;;;;5101342;28;19923;-79
2021/12/17 11:57:07;;;;;;;;;;;10.50;99.90;;;;;;5104285;27;20383;-78
2021/12/17 11:59:43;;;;;;;;;;;10.50;99.90;;;;;;5098951;28;19946;-80
2021/12/17 12:02:12;;;;;;;;;;;10.50;99.90;;;;;;5100197;28;19920;-80
2021/12/17 12:04:44;;;;;;;;;;;10.50;99.90;;;;;;5100444;27;19924;-79
2021/12/17 12:07:11;;;;;;;;;;;10.50;99.90;;;;;;5105942;27;20010;-80
2021/12/17 12:09:58;;;;;;;;;;;10.50;99.90;;;;;;5100528;27;19964;-79
2021/12/17 12:12:25;;;;;;;;;;;10.50;99.90;;;;;;5122791;27;19927;-81
2021/12/17 12:14:51;;;;;;;;;;;10.50;99.90;;;;;;5101746;27;19926;-81
2021/12/17 12:17:32;;;;;;;;;;;10.50;99.90;;;;;;5105673;27;19923;-81
2021/12/17 12:19:59;;;;;;;;;;;10.50;99.90;;;;;;5124427;27;19931;-81
2021/12/17 12:22:28;;;;;;;;;;;10.50;99.90;;;;;;5126744;27;20269;-81
2021/12/17 12:25:09;;;;;;;;;;;10.40;99.90;;;;;;5104269;27;19927;-81
2021/12/17 12:27:43;;;;;;;;;;;10.50;99.90;;;;;;5108380;27;20330;-81
2021/12/17 12:30:09;;;;;;;;;;;10.40;99.90;;;;;;5108927;27;19927;-81
2021/12/17 12:32:35;;;;;;;;;;;10.40;99.90;;;;;;5099442;27;19920;-81
2021/12/17 12:35:08;;;;;;;;;;;10.40;99.90;;;;;;5118247;27;19920;-82
2021/12/17 12:37:34;;;;;;;;;;;10.50;99.90;;;;;;5110653;27;19924;-81
2021/12/17 12:40:21;;;;;;;;;;;10.50;99.90;;;;;;5110349;27;19991;-81
2021/12/17 12:42:48;;;;;;;;;;;10.50;99.90;;;;;;5093464;27;19928;-81
2021/12/17 12:45:15;;;;;;;;;;;10.50;99.90;;;;;;5099059;27;19964;-81
2021/12/17 12:47:42;;;;;;;;;;;10.50;99.90;;;;;;5106167;27;20002;-81
2021/12/17 12:50:10;;;;;;;;;;;10.50;99.90;;;;;;5091934;27;20380;-81
2021/12/17 12:52:39;;;;;;;;;;;10.50;99.90;;;;;;5109012;27;20680;-81
2021/12/17 12:55:05;;;;;;;;;;;10.50;99.90;;;;;;5089787;27;20297;-81
2021/12/17 12:57:32;;;;;;;;;;;10.50;99.90;;;;;;5100615;27;19927;-81
2021/12/17 12:59:59;;;;;;;;;;;10.50;99.90;;;;;;5088634;27;19969;-81
2021/12/17 13:02:25;;;;;;;;;;;10.50;99.90;;;;;;5103717;27;20010;-81
2021/12/17 13:04:52;;;;;;;;;;;10.50;99.90;;;;;;5108305;27;20345;-82
2021/12/17 13:07:29;;;;;;;;;;;10.50;99.90;;;;;;5089150;27;19963;-81
2021/12/17 13:09:54;;;;;;;;;;;10.50;99.90;;;;;;5105272;27;19923;-81
2021/12/17 13:12:23;;;;;;;;;;;10.50;99.90;;;;;;5109035;27;20019;-82
2021/12/17 13:14:49;;;;;;;;;;;10.50;99.90;;;;;;5106338;27;20027;-81
2021/12/17 13:20:04;;;;;;;;;;;10.50;99.90;;;;;;5102234;27;20017;-81
2021/12/17 13:20:42;;;;;;;;;;;10.50;99.90;;;;;;5104504;27;19986;-81
2021/12/17 13:23:17;;;;;;;;;;;10.50;99.90;;;;;;5111133;27;19967;-80
2021/12/17 13:25:43;;;;;;;;;;;10.50;99.90;;;;;;5110921;27;19939;-81
2021/12/17 13:28:09;;;;;;;;;;;10.50;99.90;;;;;;5095441;27;19923;-82
2021/12/17 13:30:34;;;;;;;;;;;10.50;99.90;;;;;;5117128;27;20436;-81
2021/12/17 13:33:00;;;;;;;;;;;10.50;99.90;;;;;;5125327;27;19958;-82
2021/12/17 13:35:27;;;;;;;;;;;10.50;99.90;;;;;;5093258;27;19946;-81
2021/12/17 13:37:58;;;;;;;;;;;10.40;99.90;;;;;;5122529;27;20412;-81
2021/12/17 13:40:26;;;;;;;;;;;10.40;99.90;;;;;;5108155;28;19924;-81
2021/12/17 13:42:52;;;;;;;;;;;10.40;99.90;;;;;;5086718;27;19924;-81
2021/12/17 13:45:20;;;;;;;;;;;10.40;99.90;;;;;;5099456;27;19926;-80
2021/12/17 13:47:46;;;;;;;;;;;10.40;99.90;;;;;;5113319;27;19919;-80
2021/12/17 13:50:13;;;;;;;;;;;10.30;99.90;;;;;;5109348;27;19969;-80
2021/12/17 13:52:44;;;;;;;;;;;10.30;99.90;;;;;;5127539;27;19927;-81
2021/12/17 13:55:11;;;;;;;;;;;10.30;99.90;;;;;;5125192;27;20296;-80
2021/12/17 13:57:39;;;;;;;;;;;10.30;99.90;;;;;;5107456;27;19974;-80
2021/12/17 14:00:06;;;;;;;;;;;10.20;99.90;;;;;;5121688;27;19924;-81
2021/12/17 14:02:38;;;;;;;;;;;10.20;99.90;;;;;;5127454;27;20987;-81
2021/12/17 14:05:06;;;;;;;;;;;10.20;99.90;;;;;;5123378;27;19927;-80
2021/12/17 14:07:32;;;;;;;;;;;10.20;99.90;;;;;;5110453;27;19920;-81
2021/12/17 14:09:59;;;;;;;;;;;10.20;99.90;;;;;;5122427;27;20058;-81
2021/12/17 14:12:27;;;;;;;;;;;10.20;99.90;;;;;;5122215;27;19925;-81
2021/12/17 14:14:58;;;;;;;;;;;10.10;99.90;;;;;;5123781;27;19920;-80
2021/12/17 14:17:24;;;;;;;;;;;10.10;99.90;;;;;;5097442;27;19923;-81
2021/12/17 14:19:50;;;;;;;;;;;10.10;99.90;;;;;;5103512;27;20026;-81
2021/12/17 14:22:20;;;;;;;;;;;10.10;99.90;;;;;;5105898;27;19930;-81
2021/12/17 14:24:46;;;;;;;;;;;10.10;99.90;;;;;;5105645;27;19993;-81
2021/12/17 14:27:11;;;;;;;;;;;10.10;99.90;;;;;;5095948;27;20342;-81
2021/12/17 14:29:38;;;;;;;;;;;10.10;99.90;;;;;;5106160;27;19924;-82
2021/12/17 14:32:05;;;;;;;;;;;10.10;99.90;;;;;;5105522;27;19920;-81
2021/12/17 14:34:39;;;;;;;;;;;10.10;99.90;;;;;;5088878;27;19930;-81
2021/12/17 14:37:05;;;;;;;;;;;10.00;99.90;;;;;;5102816;27;20004;-81
2021/12/17 14:39:34;;;;;;;;;;;10.00;99.90;;;;;;5122844;27;20002;-81
2021/12/17 14:42:03;;;;;;;;;;;10.00;99.90;;;;;;5104946;27;20330;-81
2021/12/17 14:47:02;;;;;;;;;;;9.90;99.90;;;;;;5120818;27;20006;-81
2021/12/17 15:02:48;;;;;;;;;;;9.90;99.90;;;;;;5126246;27;19931;-80
2021/12/17 15:05:16;;;;;;;;;;;9.90;99.90;;;;;;5082617;28;20447;-81
2021/12/17 15:07:42;;;;;;;;;;;9.90;99.90;;;;;;5101895;27;19932;-84
2021/12/17 15:10:09;;;;;;;;;;;9.90;99.90;;;;;;5107283;28;19927;-81
2021/12/17 15:12:37;;;;;;;;;;;9.80;99.90;;;;;;5119996;27;20351;-81
2021/12/17 15:15:05;;;;;;;;;;;9.80;99.90;;;;;;5105301;28;19919;-81
2021/12/17 15:17:32;;;;;;;;;;;9.80;99.90;;;;;;5124871;27;19930;-81
2021/12/17 15:19:57;;;;;;;;;;;9.80;99.90;;;;;;5094109;28;20002;-81
2021/12/17 15:22:24;;;;;;;;;;;9.80;99.90;;;;;;5104513;28;20427;-80
2021/12/17 15:24:50;;;;;;;;;;;9.80;99.90;;;;;;5116896;27;19928;-81
2021/12/17 15:27:16;;;;;;;;;;;9.80;99.90;;;;;;5101853;28;19984;-80
2021/12/17 15:29:41;;;;;;;;;;;9.80;99.90;;;;;;5102233;27;19928;-81
2021/12/17 15:32:07;;;;;;;;;;;9.80;99.90;;;;;;5118258;27;19920;-81
2021/12/17 15:34:33;;;;;;;;;;;9.70;99.90;;;;;;5103881;28;19927;-81
2021/12/17 15:36:59;;;;;;;;;;;9.80;99.90;;;;;;5123333;27;20011;-81
2021/12/17 15:39:26;;;;;;;;;;;9.70;99.90;;;;;;5121736;27;19931;-81
2021/12/17 15:41:52;;;;;;;;;;;9.70;99.90;;;;;;5093329;27;19924;-81
2021/12/17 15:44:18;;;;;;;;;;;9.70;99.90;;;;;;5122985;27;19930;-81
2021/12/17 15:46:43;;;;;;;;;;;9.70;99.90;;;;;;5121557;27;19975;-81
2021/12/17 15:49:09;;;;;;;;;;;9.70;99.90;;;;;;5109385;27;20332;-81
2021/12/17 15:51:36;;;;;;;;;;;9.70;99.90;;;;;;5095696;27;19946;-81
2021/12/17 15:54:02;;;;;;;;;;;9.80;99.90;;;;;;5099422;27;19927;-81
2021/12/17 15:56:31;;;;;;;;;;;9.70;99.90;;;;;;5107332;27;19923;-81
2021/12/17 15:58:56;;;;;;;;;;;9.70;99.90;;;;;;5097981;27;19967;-81
2021/12/17 16:01:22;;;;;;;;;;;9.70;99.90;;;;;;5090064;27;19926;-81
2021/12/17 16:03:47;;;;;;;;;;;9.70;99.90;;;;;;5089612;27;19924;-81
2021/12/17 16:06:13;;;;;;;;;;;9.70;99.90;;;;;;5111117;27;20459;-81
2021/12/17 16:08:45;;;;;;;;;;;9.70;99.90;;;;;;5131659;27;19924;-81
2021/12/17 16:21:38;;;;;;;;;;;9.70;99.90;;;;;;5116351;27;20644;-80
2021/12/17 16:24:04;;;;;;;;;;;9.70;99.90;;;;;;5089239;27;19919;-80
2021/12/17 16:26:30;;;;;;;;;;;9.70;99.90;;;;;;5099582;27;19938;-80
2021/12/17 16:28:57;;;;;;;;;;;9.70;99.90;;;;;;5119878;27;20385;-80
2021/12/17 16:31:23;;;;;;;;;;;9.70;99.90;;;;;;5101356;27;19931;-80
2021/12/17 16:33:50;;;;;;;;;;;9.70;99.90;;;;;;5099254;27;19919;-80
2021/12/17 16:36:15;;;;;;;;;;;9.80;99.90;;;;;;5086899;27;19931;-80
2021/12/17 16:38:42;;;;;;;;;;;9.70;99.90;;;;;;5095312;28;19931;-80
2021/12/17 16:41:08;;;;;;;;;;;9.70;99.90;;;;;;5085368;27;20006;-80
2021/12/17 16:43:35;;;;;;;;;;;9.70;99.90;;;;;;5107303;27;19958;-80
2021/12/17 16:48:35;;;;;;;;;;;9.70;99.90;;;;;;5119385;27;19927;-80
2021/12/17 16:51:00;;;;;;;;;;;9.70;99.90;;;;;;5089069;27;19927;-80
2021/12/17 16:53:26;;;;;;;;;;;9.70;99.90;;;;;;5093067;27;19929;-80
2021/12/17 16:55:52;;;;;;;;;;;9.70;99.90;;;;;;5118961;27;19923;-82
2021/12/17 16:58:17;;;;;;;;;;;9.70;99.90;;;;;;5096251;27;20409;-80
2021/12/17 17:00:43;;;;;;;;;;;9.70;99.90;;;;;;5107842;27;20288;-80
2021/12/17 17:03:10;;;;;;;;;;;9.70;99.90;;;;;;5101817;27;19930;-80
2021/12/17 17:05:36;;;;;;;;;;;9.70;99.90;;;;;;5087567;27;20423;-80
2021/12/17 17:08:01;;;;;;;;;;;9.70;99.90;;;;;;5098195;27;19920;-80
2021/12/17 17:10:33;;;;;;;;;;;9.70;99.90;;;;;;5128954;27;19954;-81
2021/12/17 17:13:02;;;;;;;;;;;9.70;99.90;;;;;;5127472;27;19923;-80
2021/12/17 17:15:28;;;;;;;;;;;9.70;99.90;;;;;;5117962;27;20310;-80
2021/12/17 17:17:55;;;;;;;;;;;9.60;99.90;;;;;;5105940;27;19938;-80
2021/12/17 17:20:22;;;;;;;;;;;9.70;99.90;;;;;;5101423;27;19927;-80
2021/12/17 17:22:48;;;;;;;;;;;9.70;99.90;;;;;;5125838;27;19923;-81
2021/12/17 17:25:13;;;;;;;;;;;9.70;99.90;;;;;;5096503;27;19925;-80
2021/12/17 17:27:40;;;;;;;;;;;9.80;99.90;;;;;;5084091;27;19928;-80
2021/12/17 17:30:06;;;;;;;;;;;9.70;99.90;;;;;;5093077;27;19989;-80
2021/12/17 17:32:34;;;;;;;;;;;9.70;99.90;;;;;;5117488;27;20324;-80
2021/12/17 17:35:02;;;;;;;;;;;9.60;99.90;;;;;;5105689;27;19964;-80